Time;durP1;ratioP1;P1;durP2;ratioP2;P2;SDS_P1;SDS_P2;PMS_P1;PMS_P2;Temp;Humidity;BMP_temperature;BMP_pressure;BME280_temperature;BME280_humidity;BME280_pressure;Samples;Min_cycle;Max_cycle;Signal;HPM_P1;HPM_P2
2023/12/11 00:00:17;;;;;;;;;;;;;;;-140.72;100.00;55817.50;5087761;28;19951;-73
2023/12/11 00:02:42;;;;;;;;;;;;;;;-140.72;100.00;55801.25;5087136;28;20189;-73
2023/12/11 00:05:08;;;;;;;;;;;;;;;-140.72;100.00;55807.34;5084954;28;19970;-73
2023/12/11 00:07:33;;;;;;;;;;;;;;;-140.72;100.00;55817.50;5088617;28;19946;-73
2023/12/11 00:09:58;;;;;;;;;;;;;;;-140.72;100.00;55744.38;5086024;28;20314;-73
2023/12/11 00:12:23;;;;;;;;;;;;;;;-140.72;100.00;55738.28;5089789;28;19936;-73
2023/12/11 00:14:49;;;;;;;;;;;;;;;-140.72;100.00;55748.44;5086498;28;20429;-73
2023/12/11 00:17:14;;;;;;;;;;;;;;;-140.72;100.00;55720.00;5085783;28;19928;-73
2023/12/11 00:19:39;;;;;;;;;;;;;;;-140.72;100.00;55730.16;5086933;28;19965;-73
2023/12/11 00:22:04;;;;;;;;;;;;;;;-140.72;100.00;55667.22;5085419;28;20015;-73
2023/12/11 00:24:30;;;;;;;;;;;;;;;-140.72;100.00;55707.81;5081415;28;20484;-73
2023/12/11 00:26:55;;;;;;;;;;;;;;;-140.72;100.00;55620.50;5090827;28;19928;-73
2023/12/11 00:29:20;;;;;;;;;;;;;;;-140.72;100.00;55614.41;5084685;28;19920;-73
2023/12/11 00:31:45;;;;;;;;;;;;;;;-140.72;100.00;55557.56;5085910;28;20302;-73
2023/12/11 00:34:11;;;;;;;;;;;;;;;-140.72;100.00;55508.81;5091488;28;19927;-73
2023/12/11 00:36:36;;;;;;;;;;;;;;;-140.72;100.00;55472.25;5093304;28;19970;-73
2023/12/11 00:39:03;;;;;;;;;;;;;;;-140.72;100.00;55464.13;5086284;28;20365;-73
2023/12/11 00:41:28;;;;;;;;;;;;;;;-140.72;100.00;55433.69;5089388;28;20347;-73
2023/12/11 00:43:54;;;;;;;;;;;;;;;-140.72;100.00;55453.97;5072838;28;19930;-73
2023/12/11 00:46:24;;;;;;;;;;;;;;;-140.72;100.00;55443.81;5090211;28;19927;-73
2023/12/11 00:48:49;;;;;;;;;;;;;;;-140.72;100.00;55407.28;5086529;28;19927;-73
2023/12/11 00:51:18;;;;;;;;;;;;;;;-140.72;100.00;55405.25;5095081;28;19924;-73
2023/12/11 00:53:47;;;;;;;;;;;;;;;-140.72;100.00;55421.50;5070576;28;19928;-73
2023/12/11 00:56:13;;;;;;;;;;;;;;;-140.72;100.00;55415.41;5072910;28;20012;-73
2023/12/11 00:58:39;;;;;;;;;;;;;;;-140.72;100.00;55407.28;5087921;28;19955;-73
2023/12/11 01:01:05;;;;;;;;;;;;;;;-140.72;100.00;55380.88;5085187;28;19936;-73
2023/12/11 01:03:30;;;;;;;;;;;;;;;-140.72;100.00;55334.16;5086361;28;19920;-73
2023/12/11 01:05:55;;;;;;;;;;;;;;;-140.72;100.00;55315.91;5090025;28;19977;-73
2023/12/11 01:08:21;;;;;;;;;;;;;;;-140.72;100.00;55352.44;5086135;28;19971;-73
2023/12/11 01:10:46;;;;;;;;;;;;;;;-140.72;100.00;55289.50;5084213;28;19973;-73
2023/12/11 01:13:11;;;;;;;;;;;;;;;-140.72;100.00;55222.50;5066983;28;19967;-73
2023/12/11 01:15:38;;;;;;;;;;;;;;;-140.72;100.00;55273.25;5067270;28;20344;-74
2023/12/11 01:18:03;;;;;;;;;;;;;;;-140.72;100.00;55297.63;5097176;28;19955;-73
2023/12/11 01:20:28;;;;;;;;;;;;;;;-140.72;100.00;55244.81;5101226;28;20386;-73
2023/12/11 01:22:54;;;;;;;;;;;;;;;-140.72;100.00;55319.97;5100548;28;19919;-73
2023/12/11 01:25:19;;;;;;;;;;;;;;;-140.72;100.00;55315.91;5097132;28;19920;-73
2023/12/11 01:27:44;;;;;;;;;;;;;;;-140.72;100.00;55295.59;5092658;28;19924;-73
2023/12/11 01:30:10;;;;;;;;;;;;;;;-140.72;100.00;55319.97;5095968;28;20428;-73
2023/12/11 01:32:35;;;;;;;;;;;;;;;-140.72;100.00;55338.22;5099074;28;19920;-73
2023/12/11 01:35:00;;;;;;;;;;;;;;;-140.72;100.00;55289.50;5098744;28;20027;-73
2023/12/11 01:37:25;;;;;;;;;;;;;;;-140.72;100.00;55305.75;5090754;28;20019;-73
2023/12/11 01:39:51;;;;;;;;;;;;;;;-140.72;100.00;55307.78;5091158;28;19935;-73
2023/12/11 01:42:17;;;;;;;;;;;;;;;-140.72;100.00;55346.34;5096060;28;20239;-73
2023/12/11 01:44:42;;;;;;;;;;;;;;;-140.72;100.00;55372.75;5096255;28;21071;-73
2023/12/11 01:47:07;;;;;;;;;;;;;;;-140.72;100.00;55403.22;5091402;28;19978;-72
2023/12/11 01:49:33;;;;;;;;;;;;;;;-140.72;100.00;55518.97;5098226;28;20852;-73
2023/12/11 01:51:58;;;;;;;;;;;;;;;-140.72;100.00;55567.69;5093930;28;19983;-72
2023/12/11 01:54:24;;;;;;;;;;;;;;;-140.72;100.00;55667.22;5101628;28;19924;-73
2023/12/11 01:56:50;;;;;;;;;;;;;;;-140.72;100.00;55695.63;5104003;28;19920;-72
2023/12/11 01:59:15;;;;;;;;;;;;;;;-140.72;100.00;55760.63;5096483;28;20444;-73
2023/12/11 02:01:41;;;;;;;;;;;;;;;-140.72;100.00;55799.22;5107586;28;19920;-71
2023/12/11 02:04:08;;;;;;;;;;;;;;;-140.72;100.00;55837.81;5093702;28;19927;-71
2023/12/11 02:06:34;;;;;;;;;;;;;;;-140.72;100.00;55797.19;5094361;28;19931;-71
2023/12/11 02:08:59;;;;;;;;;;;;;;;-140.72;100.00;55849.97;5095744;28;20288;-71
2023/12/11 02:11:24;;;;;;;;;;;;;;;-140.72;100.00;55770.78;5073870;28;19965;-70
2023/12/11 02:13:49;;;;;;;;;;;;;;;-140.72;100.00;55845.94;5098622;28;20003;-70
2023/12/11 02:16:18;;;;;;;;;;;;;;;-140.72;100.00;55882.47;5103691;28;19942;-70
2023/12/11 02:18:43;;;;;;;;;;;;;;;-140.72;100.00;55947.47;5101470;28;19920;-70
2023/12/11 02:21:09;;;;;;;;;;;;;;;-140.72;100.00;55992.16;5101795;28;20298;-70
2023/12/11 02:23:35;;;;;;;;;;;;;;;-140.72;100.00;55982.00;5104729;28;19920;-71
2023/12/11 02:26:03;;;;;;;;;;;;;;;-140.72;100.00;56071.34;5103537;28;20602;-70
2023/12/11 02:28:28;;;;;;;;;;;;;;;-140.72;100.00;56128.22;5095789;28;19966;-71
2023/12/11 02:30:53;;;;;;;;;;;;;;;-140.72;100.00;56168.84;5098694;28;20023;-71
2023/12/11 02:33:18;;;;;;;;;;;;;;;-140.72;100.00;56215.56;5100815;28;20019;-71
2023/12/11 02:35:44;;;;;;;;;;;;;;;-140.72;100.00;56286.66;5103332;28;19946;-71
2023/12/11 02:38:09;;;;;;;;;;;;;;;-140.72;100.00;56290.72;5096486;28;19920;-70
2023/12/11 02:40:34;;;;;;;;;;;;;;;-140.72;100.00;56260.25;5096960;28;19916;-71
2023/12/11 02:43:00;;;;;;;;;;;;;;;-140.72;100.00;56278.53;5102787;28;19920;-71
2023/12/11 02:45:25;;;;;;;;;;;;;;;-140.72;100.00;56264.31;5102420;28;19924;-70
2023/12/11 02:47:50;;;;;;;;;;;;;;;-140.72;100.00;56183.06;5078121;28;20359;-71
2023/12/11 02:50:15;;;;;;;;;;;;;;;-140.72;100.00;56156.66;5096336;28;19928;-71
2023/12/11 02:52:41;;;;;;;;;;;;;;;-140.72;100.00;56138.38;5099942;28;19927;-71
2023/12/11 02:55:06;;;;;;;;;;;;;;;-140.72;100.00;56073.38;5089761;28;20059;-71
2023/12/11 02:57:31;;;;;;;;;;;;;;;-140.72;100.00;56044.97;5090184;28;19919;-71
2023/12/11 02:59:57;;;;;;;;;;;;;;;-140.72;100.00;55961.69;5091660;28;20407;-71
2023/12/11 03:02:22;;;;;;;;;;;;;;;-140.72;100.00;55945.44;5093462;28;19924;-71
2023/12/11 03:04:47;;;;;;;;;;;;;;;-140.72;100.00;55908.88;5095854;28;19924;-71
2023/12/11 03:07:14;;;;;;;;;;;;;;;-140.72;100.00;55888.56;5094080;28;19993;-71
2023/12/11 03:09:39;;;;;;;;;;;;;;;-140.72;100.00;55829.69;5077706;28;19928;-71
2023/12/11 03:12:04;;;;;;;;;;;;;;;-140.72;100.00;55789.06;5101413;28;19935;-71
2023/12/11 03:14:29;;;;;;;;;;;;;;;-140.72;100.00;55766.72;5101004;28;20395;-71
2023/12/11 03:16:55;;;;;;;;;;;;;;;-140.72;100.00;55748.44;5099991;28;19924;-71
2023/12/11 03:19:20;;;;;;;;;;;;;;;-140.72;100.00;55740.31;5097704;28;19957;-71
2023/12/11 03:21:45;;;;;;;;;;;;;;;-140.72;100.00;55683.47;5107280;28;20001;-71
2023/12/11 03:24:10;;;;;;;;;;;;;;;-140.72;100.00;55675.34;5107213;28;20015;-71
2023/12/11 03:26:36;;;;;;;;;;;;;;;-140.72;100.00;55669.25;5094870;28;20293;-70
2023/12/11 03:29:01;;;;;;;;;;;;;;;-140.72;100.00;55766.72;5103687;28;19965;-71
2023/12/11 03:31:26;;;;;;;;;;;;;;;-140.72;100.00;55797.19;5097473;28;19920;-71
2023/12/11 03:33:51;;;;;;;;;;;;;;;-140.72;100.00;55825.63;5101026;28;20370;-71
2023/12/11 03:36:17;;;;;;;;;;;;;;;-140.72;100.00;55870.28;5100561;28;19926;-70
2023/12/11 03:38:43;;;;;;;;;;;;;;;-140.72;100.00;55870.28;5092419;28;19921;-70
2023/12/11 03:41:08;;;;;;;;;;;;;;;-140.72;100.00;55874.34;5079397;28;19924;-70
2023/12/11 03:43:33;;;;;;;;;;;;;;;-140.72;100.00;55908.88;5099936;28;19924;-70
2023/12/11 03:46:00;;;;;;;;;;;;;;;-140.72;100.00;55902.78;5093604;28;19928;-71
2023/12/11 03:48:25;;;;;;;;;;;;;;;-140.72;100.00;55862.16;5090495;28;20337;-71
2023/12/11 03:50:50;;;;;;;;;;;;;;;-140.72;100.00;55849.97;5090006;28;19925;-71
2023/12/11 03:53:15;;;;;;;;;;;;;;;-140.72;100.00;55860.13;5097340;28;20000;-71
2023/12/11 03:55:41;;;;;;;;;;;;;;;-140.72;100.00;55839.84;5098793;28;19935;-70
2023/12/11 03:58:06;;;;;;;;;;;;;;;-140.72;100.00;55845.94;5103555;28;19934;-70
2023/12/11 04:00:31;;;;;;;;;;;;;;;-140.72;100.00;55884.50;5100473;28;20257;-70
2023/12/11 04:02:56;;;;;;;;;;;;;;;-140.72;100.00;55805.31;5095916;28;19920;-71
2023/12/11 04:05:22;;;;;;;;;;;;;;;-140.72;100.00;55890.59;5099929;28;19924;-71
2023/12/11 04:07:47;;;;;;;;;;;;;;;-140.72;100.00;55868.25;5086609;28;19928;-71
2023/12/11 04:10:12;;;;;;;;;;;;;;;-140.72;100.00;55864.19;5092870;28;20313;-71
2023/12/11 04:12:41;;;;;;;;;;;;;;;-140.72;100.00;55862.16;5072848;28;19987;-71
2023/12/11 04:15:06;;;;;;;;;;;;;;;-140.72;100.00;55849.97;5094983;28;19920;-71
2023/12/11 04:17:31;;;;;;;;;;;;;;;-140.72;100.00;55809.38;5101410;28;19973;-71
2023/12/11 04:19:57;;;;;;;;;;;;;;;-140.72;100.00;55760.63;5102837;28;19967;-71
2023/12/11 04:22:22;;;;;;;;;;;;;;;-140.72;100.00;55748.44;5103427;28;19930;-71
2023/12/11 04:24:48;;;;;;;;;;;;;;;-140.72;100.00;55687.50;5088028;28;19920;-71
2023/12/11 04:27:13;;;;;;;;;;;;;;;-140.72;100.00;55614.41;5091652;28;19938;-71
2023/12/11 04:29:38;;;;;;;;;;;;;;;-140.72;100.00;55581.91;5090515;28;20566;-71
2023/12/11 04:32:04;;;;;;;;;;;;;;;-140.72;100.00;55525.06;5089703;28;19924;-71
2023/12/11 04:34:29;;;;;;;;;;;;;;;-140.72;100.00;55464.13;5092899;28;19951;-71
2023/12/11 04:36:54;;;;;;;;;;;;;;;-140.72;100.00;55417.44;5096533;28;19962;-71
2023/12/11 04:39:19;;;;;;;;;;;;;;;-140.72;100.00;55391.03;5100895;28;20007;-70
2023/12/11 04:41:44;;;;;;;;;;;;;;;-140.72;100.00;55386.97;5096074;28;19933;-70
2023/12/11 04:44:10;;;;;;;;;;;;;;;-140.72;100.00;55380.88;5096428;28;19927;-70
2023/12/11 04:46:35;;;;;;;;;;;;;;;-140.72;100.00;55334.16;5077809;28;20525;-71
2023/12/11 04:49:00;;;;;;;;;;;;;;;-140.72;100.00;55307.78;5100081;28;19923;-71
2023/12/11 04:51:26;;;;;;;;;;;;;;;-140.72;100.00;55317.94;5096103;28;19980;-71
2023/12/11 04:53:51;;;;;;;;;;;;;;;-140.72;100.00;55291.53;5099250;28;20057;-71
2023/12/11 04:56:16;;;;;;;;;;;;;;;-140.72;100.00;55248.88;5092463;28;19920;-71
2023/12/11 04:58:42;;;;;;;;;;;;;;;-140.72;100.00;55210.31;5092264;28;20266;-71
2023/12/11 05:01:07;;;;;;;;;;;;;;;-140.72;100.00;55196.09;5097596;28;19935;-71
2023/12/11 05:03:32;;;;;;;;;;;;;;;-140.72;100.00;55155.47;5095062;28;19956;-71
2023/12/11 05:05:57;;;;;;;;;;;;;;;-140.72;100.00;55137.22;5071689;28;20452;-71
2023/12/11 05:08:23;;;;;;;;;;;;;;;-140.72;100.00;55094.56;5091479;28;20160;-71
2023/12/11 05:10:48;;;;;;;;;;;;;;;-140.72;100.00;55118.94;5089646;28;20377;-71
2023/12/11 05:13:13;;;;;;;;;;;;;;;-140.72;100.00;55056.00;5078449;28;19930;-71
2023/12/11 05:15:39;;;;;;;;;;;;;;;-140.72;100.00;55094.56;5092928;28;19947;-72
2023/12/11 05:18:04;;;;;;;;;;;;;;;-140.72;100.00;55106.75;5096323;28;20297;-71
2023/12/11 05:20:29;;;;;;;;;;;;;;;-140.72;100.00;55165.63;5101887;28;20391;-71
2023/12/11 05:22:55;;;;;;;;;;;;;;;-140.72;100.00;55187.97;5101188;28;20317;-71
2023/12/11 05:25:20;;;;;;;;;;;;;;;-140.72;100.00;55194.06;5093390;28;21260;-71
2023/12/11 05:27:45;;;;;;;;;;;;;;;-140.72;100.00;55210.31;5090245;28;20292;-71
2023/12/11 05:30:11;;;;;;;;;;;;;;;-140.72;100.00;55208.28;5091365;28;19964;-71
2023/12/11 05:32:36;;;;;;;;;;;;;;;-140.72;100.00;55163.59;5091790;28;20341;-71
2023/12/11 05:35:03;;;;;;;;;;;;;;;-140.72;100.00;55133.16;5097842;28;19935;-71
2023/12/11 05:37:28;;;;;;;;;;;;;;;-140.72;100.00;55147.34;5097630;28;20218;-71
2023/12/11 05:39:54;;;;;;;;;;;;;;;-140.72;100.00;55139.25;5073522;28;19920;-71
2023/12/11 05:42:19;;;;;;;;;;;;;;;-140.72;100.00;55171.72;5096564;28;19920;-71
2023/12/11 05:44:44;;;;;;;;;;;;;;;-140.72;100.00;55238.72;5094809;28;19920;-71
2023/12/11 05:47:09;;;;;;;;;;;;;;;-140.72;100.00;55277.31;5076996;28;20348;-76
2023/12/11 05:49:35;;;;;;;;;;;;;;;-140.72;100.00;55277.31;5090516;28;20011;-74
2023/12/11 05:52:00;;;;;;;;;;;;;;;-140.72;100.00;55324.03;5083451;28;20358;-75
2023/12/11 05:54:25;;;;;;;;;;;;;;;-140.72;100.00;55382.91;5100841;28;19935;-73
2023/12/11 05:56:51;;;;;;;;;;;;;;;-140.72;100.00;55413.38;5099770;28;20366;-71
2023/12/11 05:59:16;;;;;;;;;;;;;;;-140.72;100.00;55470.22;5067055;28;19946;-72
2023/12/11 06:01:42;;;;;;;;;;;;;;;-140.72;100.00;55470.22;5089944;28;19951;-72
2023/12/11 06:04:07;;;;;;;;;;;;;;;-140.72;100.00;55480.38;5088600;28;19924;-72
2023/12/11 06:06:33;;;;;;;;;;;;;;;-140.72;100.00;55449.91;5089503;28;19967;-72
2023/12/11 06:08:58;;;;;;;;;;;;;;;-140.72;100.00;55462.09;5090973;28;20097;-73
2023/12/11 06:11:24;;;;;;;;;;;;;;;-140.72;100.00;55370.72;5089145;28;19928;-73
2023/12/11 06:13:49;;;;;;;;;;;;;;;-140.72;100.00;55391.03;5094412;28;19923;-73
2023/12/11 06:16:15;;;;;;;;;;;;;;;-140.72;100.00;55315.91;5105637;28;20289;-72
2023/12/11 06:18:41;;;;;;;;;;;;;;;-140.72;100.00;55248.88;5095816;28;19920;-71
2023/12/11 06:21:06;;;;;;;;;;;;;;;-140.72;100.00;55208.28;5097867;28;19920;-72
2023/12/11 06:23:31;;;;;;;;;;;;;;;-140.72;100.00;55159.53;5098319;28;19992;-76
2023/12/11 06:25:56;;;;;;;;;;;;;;;-140.72;100.00;55155.47;5078815;28;19920;-71
2023/12/11 06:28:22;;;;;;;;;;;;;;;-140.72;100.00;55163.59;5085133;28;19920;-72
2023/12/11 06:30:47;;;;;;;;;;;;;;;-140.72;100.00;55204.22;5079576;28;20264;-71
2023/12/11 06:33:12;;;;;;;;;;;;;;;-140.72;100.00;55297.63;5091049;28;19963;-72
2023/12/11 06:35:37;;;;;;;;;;;;;;;-140.72;100.00;55313.88;5084339;28;19970;-71
2023/12/11 06:38:03;;;;;;;;;;;;;;;-140.72;100.00;55374.78;5082489;28;19930;-72
2023/12/11 06:40:29;;;;;;;;;;;;;;;-140.72;100.00;55403.22;5097590;28;20000;-71
2023/12/11 06:42:54;;;;;;;;;;;;;;;-140.72;100.00;55439.75;5100659;28;19920;-70
2023/12/11 06:45:19;;;;;;;;;;;;;;;-140.72;100.00;55543.34;5099698;28;19924;-71
2023/12/11 06:47:44;;;;;;;;;;;;;;;-140.72;100.00;55571.75;5095115;28;19921;-70
2023/12/11 06:50:10;;;;;;;;;;;;;;;-140.72;100.00;55691.56;5100722;28;20059;-73
2023/12/11 06:52:35;;;;;;;;;;;;;;;-140.72;100.00;55782.97;5105713;28;19927;-75
2023/12/11 06:55:02;;;;;;;;;;;;;;;-140.72;100.00;55825.63;5099060;28;19923;-74
2023/12/11 06:57:27;;;;;;;;;;;;;;;-140.72;100.00;55919.03;5099101;28;19982;-74
2023/12/11 06:59:52;;;;;;;;;;;;;;;-140.72;100.00;56004.34;5098634;28;19964;-74
2023/12/11 07:02:19;;;;;;;;;;;;;;;-140.72;100.00;56036.84;5095236;28;20297;-74
2023/12/11 07:04:45;;;;;;;;;;;;;;;-140.72;100.00;56069.31;5097129;28;20293;-74
2023/12/11 07:07:10;;;;;;;;;;;;;;;-140.72;100.00;56105.88;5097804;28;20018;-73
2023/12/11 07:09:35;;;;;;;;;;;;;;;-140.72;100.00;56122.13;5085257;28;19920;-73
2023/12/11 07:12:01;;;;;;;;;;;;;;;-140.72;100.00;56128.22;5101511;28;19919;-73
2023/12/11 07:14:26;;;;;;;;;;;;;;;-140.72;100.00;56126.19;5098631;28;19926;-73
2023/12/11 07:16:51;;;;;;;;;;;;;;;-140.72;100.00;56179.00;5087995;28;20014;-75
2023/12/11 07:19:17;;;;;;;;;;;;;;;-140.72;100.00;56138.38;5096065;28;19916;-72
2023/12/11 07:21:43;;;;;;;;;;;;;;;-140.72;100.00;56122.13;5082622;28;19917;-72
2023/12/11 07:24:08;;;;;;;;;;;;;;;-140.72;100.00;56181.03;5070253;28;19920;-72
2023/12/11 07:26:33;;;;;;;;;;;;;;;-140.72;100.00;56114.00;5086427;28;19920;-71
2023/12/11 07:29:00;;;;;;;;;;;;;;;-140.72;100.00;56032.78;5084090;28;19959;-71
2023/12/11 07:31:25;;;;;;;;;;;;;;;-140.72;100.00;55965.75;5105767;28;20365;-72
2023/12/11 07:33:50;;;;;;;;;;;;;;;-140.72;100.00;55933.25;5101895;28;19934;-72
2023/12/11 07:36:15;;;;;;;;;;;;;;;-140.72;100.00;55898.72;5098982;28;19928;-72
2023/12/11 07:38:41;;;;;;;;;;;;;;;-140.72;100.00;55854.03;5098881;28;20343;-72
2023/12/11 07:41:06;;;;;;;;;;;;;;;-140.72;100.00;55837.81;5098585;28;19924;-73
2023/12/11 07:43:31;;;;;;;;;;;;;;;-140.72;100.00;55789.06;5091471;28;20317;-74
2023/12/11 07:45:56;;;;;;;;;;;;;;;-140.72;100.00;55776.88;5096496;28;19920;-73
2023/12/11 07:48:22;;;;;;;;;;;;;;;-140.72;100.00;55752.50;5083834;28;19920;-73
2023/12/11 07:50:47;;;;;;;;;;;;;;;-140.72;100.00;55768.75;5089687;28;20314;-77
2023/12/11 07:53:12;;;;;;;;;;;;;;;-140.72;100.00;55730.16;5072302;28;19986;-74
2023/12/11 07:55:38;;;;;;;;;;;;;;;-140.72;100.00;55663.16;5090292;28;19920;-72
2023/12/11 07:58:03;;;;;;;;;;;;;;;-140.72;100.00;55689.56;5095268;28;19924;-74
2023/12/11 08:00:29;;;;;;;;;;;;;;;-140.72;100.00;55659.09;5102570;28;19942;-73
2023/12/11 08:02:54;;;;;;;;;;;;;;;-140.72;100.00;55636.75;5091688;28;19970;-73
2023/12/11 08:05:20;;;;;;;;;;;;;;;-140.72;100.00;55679.41;5106778;28;19927;-72
2023/12/11 08:07:45;;;;;;;;;;;;;;;-140.72;100.00;55707.81;5093665;28;20342;-73
2023/12/11 08:10:10;;;;;;;;;;;;;;;-140.72;100.00;55711.88;5103223;28;20329;-71
2023/12/11 08:12:36;;;;;;;;;;;;;;;-140.72;100.00;55748.44;5092385;28;19928;-72
2023/12/11 08:15:03;;;;;;;;;;;;;;;-140.72;100.00;55829.69;5093633;28;19922;-73
2023/12/11 08:17:28;;;;;;;;;;;;;;;-140.72;100.00;55864.19;5071440;28;19963;-72
2023/12/11 08:19:53;;;;;;;;;;;;;;;-140.72;100.00;55894.66;5102154;28;20361;-76
2023/12/11 08:22:18;;;;;;;;;;;;;;;-140.72;100.00;55949.50;5081804;28;19936;-73
2023/12/11 08:24:45;;;;;;;;;;;;;;;-140.72;100.00;55984.03;5079150;28;19916;-72
2023/12/11 08:27:10;;;;;;;;;;;;;;;-140.72;100.00;56042.94;5088709;28;20080;-73
2023/12/11 08:29:36;;;;;;;;;;;;;;;-140.72;100.00;56065.25;5090372;28;20389;-73
2023/12/11 08:32:02;;;;;;;;;;;;;;;-140.72;100.00;56132.28;5098936;28;19972;-73
2023/12/11 08:34:28;;;;;;;;;;;;;;;-140.72;100.00;56142.44;5097961;28;20281;-73
2023/12/11 08:36:53;;;;;;;;;;;;;;;-140.72;100.00;56158.69;5093929;28;19928;-74
2023/12/11 08:39:18;;;;;;;;;;;;;;;-140.72;100.00;56130.25;5098777;28;19927;-72
2023/12/11 08:41:44;;;;;;;;;;;;;;;-140.72;100.00;56105.88;5096513;28;19939;-73
2023/12/11 08:44:09;;;;;;;;;;;;;;;-140.72;100.00;56118.06;5099808;28;19978;-72
2023/12/11 08:46:35;;;;;;;;;;;;;;;-140.72;100.00;56081.50;5100695;28;20011;-73
2023/12/11 08:49:01;;;;;;;;;;;;;;;-140.72;100.00;56030.75;5100836;28;19969;-73
2023/12/11 08:51:26;;;;;;;;;;;;;;;-140.72;100.00;55959.66;5099092;28;19920;-73
2023/12/11 08:53:51;;;;;;;;;;;;;;;-140.72;100.00;55923.09;5096124;28;19927;-73
2023/12/11 08:56:18;;;;;;;;;;;;;;;-140.72;100.00;55902.78;5089842;28;19920;-73
2023/12/11 08:58:46;;;;;;;;;;;;;;;-140.72;100.00;55894.66;5097088;28;19924;-73
2023/12/11 09:01:11;;;;;;;;;;;;;;;-140.72;100.00;55847.94;5089229;28;20382;-73
2023/12/11 09:03:36;;;;;;;;;;;;;;;-140.72;100.00;55831.72;5091666;28;19927;-73
2023/12/11 09:06:02;;;;;;;;;;;;;;;-140.72;100.00;55754.53;5101280;28;19927;-73
2023/12/11 09:08:27;;;;;;;;;;;;;;;-140.72;100.00;55717.97;5100669;28;19928;-72
2023/12/11 09:10:53;;;;;;;;;;;;;;;-140.72;100.00;55638.78;5100194;28;19930;-73
2023/12/11 09:13:18;;;;;;;;;;;;;;;-140.72;100.00;55610.34;5091746;28;20010;-73
2023/12/11 09:15:44;;;;;;;;;;;;;;;-140.72;100.00;55529.13;5089854;28;20050;-73
2023/12/11 09:18:09;;;;;;;;;;;;;;;-140.72;100.00;55494.59;5089663;28;20377;-74
2023/12/11 09:20:35;;;;;;;;;;;;;;;-140.72;100.00;55472.25;5091942;28;19964;-73
2023/12/11 09:23:00;;;;;;;;;;;;;;;-140.72;100.00;55366.66;5091790;28;19971;-73
2023/12/11 09:25:25;;;;;;;;;;;;;;;-140.72;100.00;55395.09;5076470;28;19927;-73
2023/12/11 09:27:51;;;;;;;;;;;;;;;-140.72;100.00;55326.06;5094332;28;19920;-73
2023/12/11 09:30:16;;;;;;;;;;;;;;;-140.72;100.00;55315.91;5093163;28;20291;-73
2023/12/11 09:32:41;;;;;;;;;;;;;;;-140.72;100.00;55226.56;5096428;28;20365;-75
2023/12/11 09:35:07;;;;;;;;;;;;;;;-140.72;100.00;55185.94;5101952;28;19928;-75
2023/12/11 09:37:32;;;;;;;;;;;;;;;-140.72;100.00;55100.66;5103556;28;20326;-75
2023/12/11 09:39:57;;;;;;;;;;;;;;;-140.72;100.00;55086.44;5094734;28;19920;-74
2023/12/11 09:42:23;;;;;;;;;;;;;;;-140.72;100.00;54997.09;5098443;28;19928;-74
2023/12/11 09:44:48;;;;;;;;;;;;;;;-140.72;100.00;54956.50;5087070;28;19935;-74
2023/12/11 09:47:22;;;;;;;;;;;;;;;-140.72;100.00;54895.59;5089832;28;19924;-73
2023/12/11 09:49:48;;;;;;;;;;;;;;;-140.72;100.00;54840.75;5089390;28;19927;-73
2023/12/11 09:52:13;;;;;;;;;;;;;;;-140.72;100.00;54781.88;5090605;28;19924;-74
2023/12/11 09:54:38;;;;;;;;;;;;;;;-140.72;100.00;54716.91;5091548;28;19982;-73
2023/12/11 09:57:05;;;;;;;;;;;;;;;-140.72;100.00;54720.97;5098930;28;20271;-73
2023/12/11 09:59:30;;;;;;;;;;;;;;;-140.72;100.00;54733.16;5075768;28;19931;-73
2023/12/11 10:01:56;;;;;;;;;;;;;;;-140.72;100.00;54725.03;5095812;28;19924;-73
2023/12/11 10:04:21;;;;;;;;;;;;;;;-140.72;100.00;54708.78;5085885;28;19921;-75
2023/12/11 10:06:50;;;;;;;;;;;;;;;-140.72;100.00;54745.34;5091844;28;20287;-73
2023/12/11 10:09:34;;;;;;;;;;;;;;;-140.72;100.00;54698.63;5095220;28;19962;-73
2023/12/11 10:12:02;;;;;;;;;;;;;;;-140.72;100.00;54729.09;5094236;28;19927;-73
2023/12/11 10:14:29;;;;;;;;;;;;;;;-140.72;100.00;54694.56;5104210;28;20361;-73
2023/12/11 10:16:55;;;;;;;;;;;;;;;-140.72;100.00;54733.16;5103849;28;19927;-73
2023/12/11 10:19:32;;;;;;;;;;;;;;;-140.72;100.00;54731.13;5107473;28;19920;-73
2023/12/11 10:21:58;;;;;;;;;;;;;;;-140.72;100.00;54737.22;5106015;28;19920;-73
2023/12/11 10:24:23;;;;;;;;;;;;;;;-140.72;100.00;54672.25;5095581;28;20316;-73
2023/12/11 10:26:55;;;;;;;;;;;;;;;-140.72;100.00;54613.38;5096974;28;19928;-73
2023/12/11 10:29:25;;;;;;;;;;;;;;;-140.72;100.00;54641.78;5091600;28;19928;-73
2023/12/11 10:31:51;;;;;;;;;;;;;;;-140.72;100.00;54647.88;5096282;28;19920;-73
2023/12/11 10:34:16;;;;;;;;;;;;;;;-140.72;100.00;54672.25;5083525;28;20373;-75
2023/12/11 10:36:52;;;;;;;;;;;;;;;-140.72;100.00;54666.16;5100812;28;19931;-74
2023/12/11 10:39:21;;;;;;;;;;;;;;;-140.72;100.00;54737.22;5095836;28;19924;-76
2023/12/11 10:41:46;;;;;;;;;;;;;;;-140.72;100.00;54850.91;5101867;28;19920;-76
2023/12/11 10:44:25;;;;;;;;;;;;;;;-140.72;100.00;54897.63;5083432;28;19927;-73
2023/12/11 10:46:57;;;;;;;;;;;;;;;-140.72;100.00;54980.84;5095170;28;19946;-73
2023/12/11 10:49:23;;;;;;;;;;;;;;;-140.72;100.00;55019.44;5100717;28;19943;-73
2023/12/11 10:51:48;;;;;;;;;;;;;;;-140.72;100.00;55045.84;5096831;28;20427;-73
2023/12/11 10:54:13;;;;;;;;;;;;;;;-140.72;100.00;55033.66;5083506;28;19924;-74
2023/12/11 10:56:42;;;;;;;;;;;;;;;-140.72;100.00;55001.16;5098194;28;19970;-73
2023/12/11 10:59:07;;;;;;;;;;;;;;;-140.72;100.00;55009.28;5099040;28;20417;-74
2023/12/11 11:01:33;;;;;;;;;;;;;;;-140.72;100.00;55005.22;5079398;28;20010;-77
2023/12/11 11:03:59;;;;;;;;;;;;;;;-140.72;100.00;54962.59;5107587;28;19962;-77
2023/12/11 11:06:25;;;;;;;;;;;;;;;-140.72;100.00;54972.75;5087836;28;19959;-77
2023/12/11 11:09:04;;;;;;;;;;;;;;;-140.72;100.00;54932.13;5079093;28;19927;-77
2023/12/11 11:11:32;;;;;;;;;;;;;;;-140.72;100.00;54871.22;5078733;28;19920;-77
2023/12/11 11:14:16;;;;;;;;;;;;;;;-140.72;100.00;54871.22;5078702;28;20456;-77
2023/12/11 11:16:54;;;;;;;;;;;;;;;-140.72;100.00;54854.97;5077144;28;19920;-75
2023/12/11 11:19:20;;;;;;;;;;;;;;;-140.72;100.00;54806.25;5100113;28;19958;-75
2023/12/11 11:22:02;;;;;;;;;;;;;;;-140.72;100.00;54783.91;5103771;28;20338;-74
2023/12/11 11:24:28;;;;;;;;;;;;;;;-140.72;100.00;54781.88;5096582;28;19928;-74
2023/12/11 11:26:53;;;;;;;;;;;;;;;-140.72;100.00;54745.34;5095626;28;19924;-75
2023/12/11 11:29:37;;;;;;;;;;;;;;;-140.72;100.00;54676.31;5097147;28;20412;-75
2023/12/11 11:32:02;;;;;;;;;;;;;;;-140.72;100.00;54674.28;5086342;28;19924;-76
2023/12/11 11:34:40;;;;;;;;;;;;;;;-140.72;100.00;54678.34;5087688;28;20333;-77
2023/12/11 11:37:05;;;;;;;;;;;;;;;-140.72;100.00;54658.03;5092238;28;19920;-76
2023/12/11 11:39:50;;;;;;;;;;;;;;;-140.72;100.00;54660.06;5097437;28;20383;-76
2023/12/11 11:42:15;;;;;;;;;;;;;;;-140.72;100.00;54609.31;5084227;28;19921;-74
2023/12/11 11:44:40;;;;;;;;;;;;;;;-140.72;100.00;54605.25;5098157;28;20081;-73
2023/12/11 11:47:05;;;;;;;;;;;;;;;-140.72;100.00;54603.22;5078100;28;19964;-74
2023/12/11 11:49:32;;;;;;;;;;;;;;;-140.72;100.00;54700.66;5099130;28;20014;-73
2023/12/11 11:51:58;;;;;;;;;;;;;;;-140.72;100.00;54702.69;5074837;28;19918;-73
2023/12/11 11:54:24;;;;;;;;;;;;;;;-140.72;100.00;54828.56;5101608;28;19934;-73
2023/12/11 11:56:49;;;;;;;;;;;;;;;-140.72;100.00;54907.75;5094336;28;19931;-73
2023/12/11 11:59:15;;;;;;;;;;;;;;;-140.72;100.00;55009.28;5108079;28;19920;-73
2023/12/11 12:01:58;;;;;;;;;;;;;;;-140.72;100.00;55078.31;5093853;28;19920;-73
2023/12/11 12:04:31;;;;;;;;;;;;;;;-140.72;100.00;55198.13;5098753;28;19934;-73
2023/12/11 12:07:00;;;;;;;;;;;;;;;-140.72;100.00;55267.16;5097594;28;19928;-73
2023/12/11 12:09:25;;;;;;;;;;;;;;;-140.72;100.00;55293.56;5094343;28;19920;-73
2023/12/11 12:11:51;;;;;;;;;;;;;;;-140.72;100.00;55366.66;5098214;28;20011;-73